createdAt,value
2019-04-04T00:01:06.678Z,97038.64
2019-04-04T00:03:34.546Z,97050.28
2019-04-04T00:06:03.170Z,97044.72
2019-04-04T00:08:32.268Z,97042.67
2019-04-04T00:11:01.372Z,97041.58
2019-04-04T00:13:30.071Z,97044.09
2019-04-04T00:15:58.738Z,97055.03
2019-04-04T00:18:28.103Z,97049.98
2019-04-04T00:20:56.786Z,97064.77
2019-04-04T00:23:25.728Z,97054.02
2019-04-04T00:25:54.407Z,97045.27
2019-04-04T00:28:23.170Z,97045.22
2019-04-04T00:30:51.842Z,97041.14
2019-04-04T00:33:20.537Z,97054.73
2019-04-04T00:35:49.225Z,97067.34
2019-04-04T00:38:17.914Z,97054.56
2019-04-04T00:40:46.601Z,97045.05
2019-04-04T00:43:15.539Z,97027.78
2019-04-04T00:45:44.226Z,97010.67
2019-04-04T00:48:13.168Z,97015.07
2019-04-04T00:50:42.368Z,97025.22
2019-04-04T00:53:11.814Z,97026.50
2019-04-04T00:55:41.050Z,97010.66
2019-04-04T00:58:09.754Z,97003.70
2019-04-04T01:00:38.584Z,96992.30
2019-04-04T01:03:07.520Z,96995.91
2019-04-04T01:05:36.703Z,97010.82
2019-04-04T01:08:07.024Z,97020.09
2019-04-04T01:10:36.063Z,97007.48
2019-04-04T01:13:04.821Z,96999.24
2019-04-04T01:15:33.507Z,96988.58
2019-04-04T01:18:04.008Z,96993.36
2019-04-04T01:20:33.098Z,96982.36
2019-04-04T01:23:01.872Z,96964.11
2019-04-04T01:25:32.647Z,96970.31
2019-04-04T01:28:01.269Z,96963.53
2019-04-04T01:30:29.957Z,96956.19
2019-04-04T01:32:58.698Z,96950.27
2019-04-04T01:35:27.392Z,96951.88
2019-04-04T01:37:58.241Z,96953.08
2019-04-04T01:40:26.890Z,96961.73
2019-04-04T01:42:55.840Z,96970.30
2019-04-04T01:45:24.771Z,96977.30
2019-04-04T01:47:53.697Z,96976.52
2019-04-04T01:50:23.285Z,96956.88
2019-04-04T01:52:52.039Z,96950.03
2019-04-04T01:55:20.992Z,96952.88
2019-04-04T01:57:50.185Z,96954.25
2019-04-04T02:00:19.380Z,96968.36
2019-04-04T02:02:48.047Z,96961.68
2019-04-04T02:05:16.883Z,96898.05
2019-04-04T02:07:45.573Z,96962.48
2019-04-04T02:10:14.516Z,96972.06
2019-04-04T02:12:43.199Z,96977.55
2019-04-04T02:15:14.203Z,96984.98
2019-04-04T02:17:42.727Z,96974.36
2019-04-04T02:20:11.773Z,96966.61
2019-04-04T02:22:40.731Z,96958.61
2019-04-04T02:25:09.673Z,96969.14
2019-04-04T02:27:38.474Z,96969.14
2019-04-04T02:30:14.834Z,96962.55
2019-04-04T02:32:40.218Z,96976.57
2019-04-04T02:35:10.670Z,96969.88
2019-04-04T02:37:40.260Z,96974.52
2019-04-04T02:40:10.062Z,96978.08
2019-04-04T02:42:39.314Z,96975.56
2019-04-04T02:45:08.654Z,96963.67
2019-04-04T02:47:37.305Z,96966.61
2019-04-04T02:50:06.622Z,96956.96
2019-04-04T02:52:35.558Z,96950.31
2019-04-04T02:55:04.654Z,96949.77
2019-04-04T02:57:33.560Z,96953.69
2019-04-04T03:00:03.033Z,96944.66
2019-04-04T03:02:31.701Z,96932.83
2019-04-04T03:05:00.486Z,96930.52
2019-04-04T03:07:31.005Z,96930.30
2019-04-04T03:09:59.903Z,96926.70
2019-04-04T03:12:28.578Z,96932.13
2019-04-04T03:14:57.279Z,96933.91
2019-04-04T03:17:26.210Z,96935.95
2019-04-04T03:19:55.159Z,96936.62
2019-04-04T03:22:24.623Z,96916.09
2019-04-04T03:24:54.246Z,96901.05
2019-04-04T03:27:26.052Z,96888.82
2019-04-04T03:29:53.653Z,96893.10
2019-04-04T03:32:22.454Z,96911.91
2019-04-04T03:34:51.920Z,96911.52
2019-04-04T03:37:20.622Z,96928.78
2019-04-04T03:39:52.186Z,96937.89
2019-04-04T03:42:19.839Z,96936.59
2019-04-04T03:44:52.838Z,96935.23
2019-04-04T03:47:19.531Z,96949.28
2019-04-04T03:49:48.228Z,96952.58
2019-04-04T03:52:19.287Z,96942.67
2019-04-04T03:54:47.993Z,96936.69
2019-04-04T03:57:16.931Z,96924.55
2019-04-04T03:59:46.382Z,96939.39
2019-04-04T04:02:17.852Z,96936.14
2019-04-04T04:04:45.746Z,96945.55
2019-04-04T04:07:15.371Z,96957.52
2019-04-04T04:09:44.470Z,96937.48
2019-04-04T04:12:13.710Z,96933.41
2019-04-04T04:14:42.402Z,96948.08
2019-04-04T04:17:11.662Z,96953.51
2019-04-04T04:19:41.235Z,96938.93
2019-04-04T04:22:12.970Z,96935.48
2019-04-04T04:24:41.065Z,96935.48
2019-04-04T04:27:14.374Z,96918.56
2019-04-04T04:29:40.164Z,96911.39
2019-04-04T04:32:08.932Z,96925.67
2019-04-04T04:34:37.624Z,96937.16
2019-04-04T04:37:06.322Z,96937.89
2019-04-04T04:39:40.866Z,96916.41
2019-04-04T04:42:05.704Z,96907.31
2019-04-04T04:44:37.629Z,96891.66
2019-04-04T04:47:05.309Z,96888.70
2019-04-04T04:49:35.732Z,96878.34
2019-04-04T04:52:04.878Z,96880.55
2019-04-04T04:54:33.564Z,96895.81
2019-04-04T04:57:03.921Z,96903.08
2019-04-04T04:59:32.706Z,96923.56
2019-04-04T05:02:01.817Z,96934.27
2019-04-04T05:04:30.792Z,96939.44
2019-04-04T05:06:59.827Z,96936.63
2019-04-04T05:09:28.765Z,96929.81
2019-04-04T05:11:57.482Z,96937.66
2019-04-04T05:14:29.811Z,96940.04
2019-04-04T05:16:59.051Z,96923.80
2019-04-04T05:19:27.844Z,96913.52
2019-04-04T05:21:56.552Z,96904.27
2019-04-04T05:24:25.750Z,96892.31
2019-04-04T05:26:54.706Z,96895.33
2019-04-04T05:29:23.361Z,96890.95
2019-04-04T05:31:52.166Z,96892.72
2019-04-04T05:34:21.423Z,96891.73
2019-04-04T05:36:50.123Z,96893.03
2019-04-04T05:39:19.097Z,96893.82
2019-04-04T05:41:48.179Z,96903.94
2019-04-04T05:44:16.839Z,96918.86
2019-04-04T05:46:45.550Z,96910.73
2019-04-04T05:49:14.262Z,96895.48
2019-04-04T05:51:42.975Z,96899.08
2019-04-04T05:54:11.687Z,96888.14
2019-04-04T05:56:40.653Z,96893.43
2019-04-04T05:59:09.344Z,96890.56
2019-04-04T06:01:38.040Z,96875.77
2019-04-04T06:04:06.995Z,96885.43
2019-04-04T06:06:36.055Z,96906.44
2019-04-04T06:09:25.738Z,96911.05
2019-04-04T06:11:55.339Z,96903.08
2019-04-04T06:14:24.032Z,96907.80
2019-04-04T06:16:53.010Z,96916.04
2019-04-04T06:19:21.785Z,96906.55
2019-04-04T06:21:51.212Z,96926.98
2019-04-04T06:24:20.135Z,96938.45
2019-04-04T06:26:48.829Z,96950.98
2019-04-04T06:29:18.039Z,96942.77
2019-04-04T06:31:48.217Z,96934.66
2019-04-04T06:34:16.920Z,96926.72
2019-04-04T06:36:46.997Z,96928.13
2019-04-04T06:39:16.331Z,96928.45
2019-04-04T06:41:45.613Z,96934.86
2019-04-04T06:44:14.304Z,96928.64
2019-04-04T06:46:43.025Z,96937.09
2019-04-04T06:49:12.571Z,96925.81
2019-04-04T06:51:41.502Z,96929.23
2019-04-04T06:54:10.215Z,96935.92
2019-04-04T06:56:38.896Z,96936.70
2019-04-04T06:59:11.221Z,96931.09
2019-04-04T07:01:40.858Z,96937.42
2019-04-04T07:04:09.548Z,96955.45
2019-04-04T07:06:38.230Z,96956.67
2019-04-04T07:09:08.070Z,96943.81
2019-04-04T07:11:36.760Z,96927.59
2019-04-04T07:14:05.705Z,96928.59
2019-04-04T07:16:36.826Z,96932.55
2019-04-04T07:19:07.717Z,96925.30
2019-04-04T07:21:35.732Z,96914.16
2019-04-04T07:24:04.515Z,96910.82
2019-04-04T07:26:33.478Z,96929.63
2019-04-04T07:29:02.249Z,96947.09
2019-04-04T07:31:34.012Z,96960.37
2019-04-04T07:34:02.530Z,96960.20
2019-04-04T07:36:31.271Z,96957.80
2019-04-04T07:39:00.312Z,96970.73
2019-04-04T07:41:30.042Z,96969.79
2019-04-04T07:43:59.001Z,96972.09
2019-04-04T07:46:27.727Z,96964.27
2019-04-04T07:48:56.431Z,96961.31
2019-04-04T07:51:25.115Z,96960.67
2019-04-04T07:53:53.816Z,96940.00
2019-04-04T07:56:22.547Z,96928.47
2019-04-04T07:58:51.298Z,96932.27
2019-04-04T08:01:19.987Z,96932.89
2019-04-04T08:03:48.701Z,96937.42
2019-04-04T08:06:17.376Z,96951.59
2019-04-04T08:08:46.080Z,96948.23
2019-04-04T08:11:14.795Z,96956.31
2019-04-04T08:13:43.990Z,96950.16
2019-04-04T08:16:12.942Z,96960.21
2019-04-04T08:18:41.879Z,96944.55
2019-04-04T08:21:10.906Z,96935.16
2019-04-04T08:23:39.702Z,96948.94
2019-04-04T08:26:10.098Z,96947.84
2019-04-04T08:28:39.392Z,96942.98
2019-04-04T08:31:09.774Z,96936.44
2019-04-04T08:33:38.690Z,96932.06
2019-04-04T08:36:07.470Z,96932.34
2019-04-04T08:38:36.254Z,96944.11
2019-04-04T08:41:05.081Z,96943.94
2019-04-04T08:43:33.774Z,96945.66
2019-04-04T08:46:02.793Z,96951.77
2019-04-04T08:48:31.561Z,96942.35
2019-04-04T08:51:00.332Z,96936.61
2019-04-04T08:53:39.252Z,96933.89
2019-04-04T08:55:59.722Z,96941.77
2019-04-04T08:58:28.497Z,96943.34
2019-04-04T09:00:57.192Z,96941.24
2019-04-04T09:03:25.976Z,96936.73
2019-04-04T09:05:54.763Z,96934.53
2019-04-04T09:08:23.891Z,96937.81
2019-04-04T09:10:52.837Z,96943.06
2019-04-04T09:13:21.865Z,96947.67
2019-04-04T09:15:50.826Z,96847.66
2019-04-04T09:18:19.775Z,96957.03
2019-04-04T09:20:48.733Z,96965.81
2019-04-04T09:23:17.510Z,96970.20
2019-04-04T09:25:46.341Z,96967.05
2019-04-04T09:38:40.126Z,96970.05
2019-04-04T09:41:08.849Z,96977.38
2019-04-04T09:43:39.115Z,96977.62
2019-04-04T09:46:08.227Z,96975.82
2019-04-04T09:48:36.952Z,96971.62
2019-04-04T09:51:05.730Z,96973.67
2019-04-04T09:53:34.749Z,96979.38
2019-04-04T09:56:03.761Z,96981.17
2019-04-04T09:58:32.517Z,96986.73
2019-04-04T10:01:01.367Z,96981.11
2019-04-04T10:03:30.084Z,96975.73
2019-04-04T10:05:59.147Z,96979.16
2019-04-04T10:08:27.859Z,96967.60
2019-04-04T10:10:56.867Z,96962.59
2019-04-04T10:13:25.541Z,96958.97
2019-04-04T10:15:54.956Z,96950.75
2019-04-04T10:18:23.639Z,96941.42
2019-04-04T10:20:52.349Z,96938.94
2019-04-04T10:23:21.589Z,96947.42
2019-04-04T10:25:50.575Z,96934.61
2019-04-04T10:28:19.760Z,96938.28
2019-04-04T10:30:48.538Z,96934.27
2019-04-04T10:33:17.225Z,96935.66
2019-04-04T10:35:46.226Z,96940.69
2019-04-04T10:38:14.945Z,96939.22
2019-04-04T10:40:43.903Z,96934.73
2019-04-04T10:43:12.622Z,96934.06
2019-04-04T10:45:41.336Z,96941.93
2019-04-04T10:48:10.031Z,96940.12
2019-04-04T10:50:38.749Z,96945.11
2019-04-04T10:53:07.432Z,96950.27
2019-04-04T10:55:36.467Z,96944.96
2019-04-04T10:58:05.370Z,96943.36
2019-04-04T11:00:34.393Z,96944.70
2019-04-04T11:03:03.341Z,96951.67
2019-04-04T11:05:35.212Z,96957.06
2019-04-04T11:08:02.776Z,96963.36
2019-04-04T11:10:31.456Z,96961.75
2019-04-04T11:13:02.723Z,96961.55
2019-04-04T11:15:30.590Z,96962.12
2019-04-04T11:17:59.834Z,96969.02
2019-04-04T11:20:28.545Z,96964.06
2019-04-04T11:22:57.288Z,96966.69
2019-04-04T11:25:26.260Z,96958.27
2019-04-04T11:27:54.956Z,96952.72
2019-04-04T11:30:23.818Z,96950.05
2019-04-04T11:32:52.756Z,96949.37
2019-04-04T11:35:23.163Z,96947.84
2019-04-04T11:37:52.083Z,96936.53
2019-04-04T11:40:20.789Z,96934.48
2019-04-04T11:42:49.764Z,96929.98
2019-04-04T11:45:18.852Z,96931.50
2019-04-04T11:47:47.562Z,96940.12
2019-04-04T11:50:16.346Z,96924.23
2019-04-04T11:52:45.043Z,96931.94
2019-04-04T11:55:13.745Z,96933.11
2019-04-04T11:57:42.458Z,96932.91
2019-04-04T12:00:13.528Z,96929.04
2019-04-04T12:02:42.306Z,96938.77
2019-04-04T12:05:11.238Z,96948.48
2019-04-04T12:07:40.447Z,96967.69
2019-04-04T12:10:10.658Z,96973.28
2019-04-04T12:12:39.374Z,96973.96
2019-04-04T12:15:10.712Z,96977.92
2019-04-04T12:17:39.446Z,96984.39
2019-04-04T12:20:08.887Z,96984.00
2019-04-04T12:22:37.879Z,96990.90
2019-04-04T12:25:06.945Z,96992.80
2019-04-04T12:27:36.144Z,96982.88
2019-04-04T12:30:06.506Z,96979.32
2019-04-04T12:32:35.233Z,96993.89
2019-04-04T12:35:04.798Z,96995.30
2019-04-04T12:37:33.548Z,96994.59
2019-04-04T12:40:02.526Z,96991.27
2019-04-04T12:42:31.488Z,96980.41
2019-04-04T12:45:00.198Z,96978.00
2019-04-04T12:47:29.157Z,96970.53
2019-04-04T12:49:58.129Z,96977.69
2019-04-04T12:52:27.096Z,96960.74
2019-04-04T12:54:55.819Z,96961.34
2019-04-04T12:57:24.561Z,96963.62
2019-04-04T12:59:53.815Z,96951.31
2019-04-04T13:02:22.495Z,96960.94
2019-04-04T13:04:51.939Z,96964.92
2019-04-04T13:07:20.674Z,96953.38
2019-04-04T13:09:49.378Z,96949.05
2019-04-04T13:12:18.348Z,96960.39
2019-04-04T13:14:47.173Z,96964.88
2019-04-04T13:17:15.891Z,96961.17
2019-04-04T13:19:44.595Z,96942.59
2019-04-04T13:22:13.393Z,96947.11
2019-04-04T13:24:42.171Z,96944.65
2019-04-04T13:27:10.971Z,96949.37
2019-04-04T13:29:39.652Z,96947.11
2019-04-04T13:32:08.632Z,96949.56
2019-04-04T13:34:39.825Z,96962.66
2019-04-04T13:37:08.796Z,96965.50
2019-04-04T13:39:37.485Z,96959.41
2019-04-04T13:42:06.366Z,96969.91
2019-04-04T13:44:35.327Z,96966.11
2019-04-04T13:47:04.113Z,96958.28
2019-04-04T13:49:32.817Z,96956.50
2019-04-04T13:52:01.506Z,96954.70
2019-04-04T13:54:30.211Z,96950.26
2019-04-04T13:56:58.950Z,96958.57
2019-04-04T13:59:27.934Z,96963.67
2019-04-04T14:01:57.165Z,96972.85
2019-04-04T14:04:25.872Z,96969.83
2019-04-04T14:06:54.850Z,96974.19
2019-04-04T14:09:23.568Z,96982.75
2019-04-04T14:11:52.268Z,96988.88
2019-04-04T14:14:21.319Z,96997.13
2019-04-04T14:16:50.049Z,96995.14
2019-04-04T14:19:19.009Z,97015.98
2019-04-04T14:21:50.742Z,97031.02
2019-04-04T14:24:19.685Z,97039.67
2019-04-04T14:26:48.638Z,97058.79
2019-04-04T14:29:27.138Z,97082.91
2019-04-04T14:31:47.824Z,97086.86
2019-04-04T14:34:16.573Z,97076.69
2019-04-04T14:36:45.266Z,97061.60
2019-04-04T14:39:13.961Z,97048.64
2019-04-04T14:41:42.682Z,97042.37
2019-04-04T14:44:11.646Z,97030.52
2019-04-04T14:46:40.523Z,97018.80
2019-04-04T14:49:09.215Z,97007.06
2019-04-04T14:51:37.975Z,96994.45
2019-04-04T14:54:06.751Z,96986.70
2019-04-04T14:56:35.476Z,96969.15
2019-04-04T14:59:04.285Z,96978.67
2019-04-04T15:01:35.076Z,97000.50
2019-04-04T15:04:03.422Z,97009.68
2019-04-04T15:06:32.422Z,97017.47
2019-04-04T15:09:01.170Z,97012.47
2019-04-04T15:11:29.812Z,97008.66
2019-04-04T15:13:58.521Z,97026.59
2019-04-04T15:16:27.484Z,97036.12
2019-04-04T15:18:56.422Z,97045.05
2019-04-04T15:21:25.097Z,97042.09
2019-04-04T15:23:53.853Z,97043.02
2019-04-04T15:26:22.788Z,97045.37
2019-04-04T15:28:51.509Z,97052.55
2019-04-04T15:31:20.265Z,97059.47
2019-04-04T15:33:50.467Z,97060.37
2019-04-04T15:36:19.419Z,97067.61
2019-04-04T15:38:50.256Z,97074.50
2019-04-04T15:41:19.095Z,97074.56
2019-04-04T15:43:47.861Z,97068.63
2019-04-04T15:46:16.787Z,97069.23
2019-04-04T15:48:45.783Z,97075.80
2019-04-04T15:51:14.482Z,97067.23
2019-04-04T15:53:43.532Z,97067.63
2019-04-04T15:56:13.309Z,97066.91
2019-04-04T15:58:42.516Z,97067.05
2019-04-04T16:01:11.259Z,97080.47
2019-04-04T16:03:41.288Z,97083.38
2019-04-04T16:06:10.042Z,97091.38
2019-04-04T16:08:39.298Z,97103.25
2019-04-04T16:11:08.007Z,97115.50
2019-04-04T16:13:36.971Z,97109.41
2019-04-04T16:16:05.835Z,97107.80
2019-04-04T16:18:34.609Z,97119.94
2019-04-04T16:21:03.576Z,97133.39
2019-04-04T16:23:32.273Z,97140.88
2019-04-04T16:26:00.994Z,97140.88
2019-04-04T16:28:29.939Z,97141.88
2019-04-04T16:30:58.901Z,97159.75
2019-04-04T16:33:27.623Z,97154.18
2019-04-04T16:35:56.312Z,97144.83
2019-04-04T16:38:25.064Z,97142.80
2019-04-04T16:40:53.772Z,97147.73
2019-04-04T16:43:22.476Z,97149.34
2019-04-04T16:45:51.453Z,97149.22
2019-04-04T16:48:20.426Z,97157.50
2019-04-04T16:50:49.623Z,97158.30
2019-04-04T16:53:18.586Z,97160.05
2019-04-04T16:55:47.298Z,97171.73
2019-04-04T16:58:16.250Z,97163.97
2019-04-04T17:00:44.953Z,97166.23
2019-04-04T17:03:13.998Z,97177.75
2019-04-04T17:05:42.696Z,97178.98
2019-04-04T17:08:11.674Z,97189.78
2019-04-04T17:10:40.377Z,97183.88
2019-04-04T17:13:09.075Z,97179.41
2019-04-04T17:15:37.864Z,97179.58
2019-04-04T17:18:06.748Z,97175.58
2019-04-04T17:20:35.669Z,97181.66
2019-04-04T17:23:04.515Z,97173.08
2019-04-04T17:25:33.496Z,97181.41
2019-04-04T17:28:02.495Z,97183.66
2019-04-04T17:30:31.498Z,97188.63
2019-04-04T17:33:00.255Z,97191.98
2019-04-04T17:35:29.371Z,97193.03
2019-04-04T17:37:58.167Z,97189.58
2019-04-04T17:40:27.111Z,97191.66
2019-04-04T17:42:56.767Z,97185.26
2019-04-04T17:45:25.542Z,97181.58
2019-04-04T17:47:54.602Z,97179.66
2019-04-04T17:50:26.355Z,97175.66
2019-04-04T17:52:55.162Z,97178.77
2019-04-04T17:55:24.196Z,97174.70
2019-04-04T17:57:52.863Z,97173.67
2019-04-04T18:00:23.238Z,97178.16
2019-04-04T18:02:52.209Z,97183.81
2019-04-04T18:05:21.222Z,97181.58
2019-04-04T18:07:50.222Z,97179.84
2019-04-04T18:10:19.623Z,97182.23
2019-04-04T18:12:48.570Z,97173.98
2019-04-04T18:15:17.922Z,97179.74
2019-04-04T18:17:46.849Z,97175.28
2019-04-04T18:20:16.058Z,97180.05
2019-04-04T18:22:44.784Z,97183.34
2019-04-04T18:25:13.746Z,97185.75
2019-04-04T18:27:42.862Z,97182.06
2019-04-04T18:30:12.285Z,97191.81
2019-04-04T18:32:41.113Z,97208.02
2019-04-04T18:35:10.590Z,97144.23
2019-04-04T18:37:39.392Z,97214.38
2019-04-04T18:40:15.146Z,97222.67
2019-04-04T18:42:53.294Z,97221.66
2019-04-04T18:45:15.323Z,97226.69
2019-04-04T18:47:44.075Z,97221.00
2019-04-04T18:50:15.270Z,97214.13
2019-04-04T18:52:43.975Z,97217.58
2019-04-04T18:55:19.609Z,97221.00
2019-04-04T18:57:44.559Z,97219.64
2019-04-04T19:00:14.119Z,97217.73
2019-04-04T19:02:43.371Z,97212.70
2019-04-04T19:05:12.799Z,97214.86
2019-04-04T19:07:43.873Z,97221.50
2019-04-04T19:10:14.655Z,97230.48
2019-04-04T19:12:45.539Z,97237.89
2019-04-04T19:15:15.966Z,97246.77
2019-04-04T19:17:44.672Z,97245.56
2019-04-04T19:20:13.649Z,97189.42
2019-04-04T19:22:43.764Z,97255.28
2019-04-04T19:25:13.833Z,97250.81
2019-04-04T19:27:43.501Z,97257.88
2019-04-04T19:30:13.024Z,97252.61
2019-04-04T19:32:41.977Z,97251.11
2019-04-04T19:35:10.918Z,97251.29
2019-04-04T19:37:39.634Z,97248.05
2019-04-04T19:40:08.980Z,97248.47
2019-04-04T19:42:37.929Z,97254.11
2019-04-04T19:45:07.275Z,97257.13
2019-04-04T19:47:36.624Z,97266.41
2019-04-04T19:50:06.451Z,97266.16
2019-04-04T19:52:35.814Z,97275.48
2019-04-04T19:55:05.045Z,97274.56
2019-04-04T19:57:34.276Z,97265.34
2019-04-04T20:00:03.011Z,97273.02
2019-04-04T20:02:31.779Z,97275.41
2019-04-04T20:05:00.426Z,97276.62
2019-04-04T20:07:29.135Z,97278.05
2019-04-04T20:09:58.169Z,97280.91
2019-04-04T20:12:26.973Z,97278.97
2019-04-04T20:14:56.036Z,97277.91
2019-04-04T20:17:25.264Z,97278.39
2019-04-04T20:19:54.063Z,97276.14
2019-04-04T20:22:23.010Z,97282.94
2019-04-04T20:24:51.680Z,97293.08
2019-04-04T20:27:20.463Z,97298.31
2019-04-04T20:29:49.148Z,97299.42
2019-04-04T20:32:18.117Z,97297.22
2019-04-04T20:34:47.038Z,97289.11
2019-04-04T20:37:16.082Z,97299.02
2019-04-04T20:39:45.027Z,97307.87
2019-04-04T20:42:13.713Z,97306.80
2019-04-04T20:44:42.413Z,97312.11
2019-04-04T20:47:11.249Z,97311.37
2019-04-04T20:49:40.189Z,97299.75
2019-04-04T20:52:08.908Z,97301.98
2019-04-04T20:54:37.586Z,97300.69
2019-04-04T20:57:06.564Z,97296.55
2019-04-04T20:59:35.344Z,97298.39
2019-04-04T21:02:04.159Z,97303.94
2019-04-04T21:04:33.124Z,97301.24
2019-04-04T21:07:01.863Z,97309.51
2019-04-04T21:09:30.564Z,97310.75
2019-04-04T21:11:59.290Z,97317.06
2019-04-04T21:14:28.324Z,97326.91
2019-04-04T21:16:57.055Z,97333.30
2019-04-04T21:19:25.809Z,97329.28
2019-04-04T21:21:54.529Z,97332.82
2019-04-04T21:24:23.453Z,97346.81
2019-04-04T21:26:52.177Z,97346.76
2019-04-04T21:29:21.142Z,97349.61
2019-04-04T21:31:50.199Z,97353.00
2019-04-04T21:34:19.125Z,97356.84
2019-04-04T21:36:47.854Z,97363.28
2019-04-04T21:39:17.356Z,97364.63
2019-04-04T21:41:46.074Z,97353.68
2019-04-04T21:44:14.789Z,97355.75
2019-04-04T21:46:43.534Z,97348.08
2019-04-04T21:49:12.235Z,97358.46
2019-04-04T21:51:41.191Z,97364.56
2019-04-04T21:54:09.941Z,97364.15
2019-04-04T21:56:38.652Z,97374.39
2019-04-04T21:59:07.456Z,97371.67
2019-04-04T22:01:36.556Z,97376.70
2019-04-04T22:04:05.436Z,97372.90
2019-04-04T22:06:34.445Z,97374.39
2019-04-04T22:09:04.987Z,97374.19
2019-04-04T22:11:33.701Z,97361.86
2019-04-04T22:14:02.415Z,97371.84
2019-04-04T22:16:31.385Z,97381.16
2019-04-04T22:19:00.090Z,97396.14
2019-04-04T22:21:28.780Z,97402.14
2019-04-04T22:23:57.509Z,97400.78
2019-04-04T22:26:26.245Z,97403.73
2019-04-04T22:28:55.345Z,97406.83
2019-04-04T22:31:24.040Z,97403.73
2019-04-04T22:33:53.007Z,97410.77
2019-04-04T22:36:21.743Z,97412.55
2019-04-04T22:38:50.479Z,97402.14
2019-04-04T22:41:19.478Z,97413.12
2019-04-04T22:43:48.294Z,97403.12
2019-04-04T22:46:17.017Z,97405.70
2019-04-04T22:48:45.724Z,97402.28
2019-04-04T22:51:14.661Z,97412.62
2019-04-04T22:53:43.890Z,97410.73
2019-04-04T22:56:12.831Z,97418.80
2019-04-04T22:58:41.783Z,97433.50
2019-04-04T23:01:10.491Z,97431.45
2019-04-04T23:03:39.431Z,97434.83
2019-04-04T23:06:08.439Z,97429.52
2019-04-04T23:08:37.383Z,97429.28
2019-04-04T23:11:06.133Z,97425.76
2019-04-04T23:13:35.089Z,97421.75
2019-04-04T23:16:04.083Z,97436.06
2019-04-04T23:18:32.781Z,97437.80
2019-04-04T23:21:01.444Z,97431.87
2019-04-04T23:23:30.161Z,97421.69
2019-04-04T23:25:59.104Z,97416.22
2019-04-04T23:28:27.809Z,97408.08
2019-04-04T23:30:56.518Z,97408.17
2019-04-04T23:33:25.475Z,97408.82
2019-04-04T23:35:54.161Z,97399.55
2019-04-04T23:38:22.864Z,97393.50
2019-04-04T23:40:51.543Z,97390.91
2019-04-04T23:43:20.315Z,97399.31
2019-04-04T23:45:49.061Z,97393.12
2019-04-04T23:48:17.995Z,97388.20
2019-04-04T23:50:46.901Z,97385.23
2019-04-04T23:53:15.863Z,97378.66
2019-04-04T23:55:44.535Z,97378.05
2019-04-04T23:58:16.214Z,97384.00
